Nearby METAR Reports

 

KLXT - Lees Summit Muni, Missouri, USA
Distance from station: E 5mi, 9km
Updated: Sun, 25-Jan-2015 3:53am CST
Overcast
Overcast
 Wind from W
Wind: W 12 mph , 19 km/h, Gust: 20 mph , 31 km/h
Temperature: 46°F , 8°C
Wind Chill: 40°F , 4°C
Dew Point: 39°F , 4°C
Humidity: 76%
Barometer: 29.63 inHg , 1003.4 hPa
Clouds: Overcast
Visibility: 10 miles , 16 km
Cloud details: Mostly cloudy 3500 ft
Mostly cloudy 4300 ft
Overcast 7000 ft
2015/01/25 09:53 KLXT 250953Z AUTO 28010G17KT 10SM BKN035 BKN043 OVC070 08/04 A2963 RMK AO2 SLP033 T00780039
KMKC - Kansas City/Dntn, Missouri, USA
Distance from station: NW 12mi, 19km
Updated: Sun, 25-Jan-2015 3:54am CST
Partly cloudy
Partly cloudy
 Wind from WNW
Wind: WNW 10 mph , 17 km/h, Gust: 20 mph , 31 km/h
Temperature: 48°F , 9°C
Wind Chill: 44°F , 7°C
Dew Point: 39°F , 4°C
Humidity: 71%
Barometer: 29.63 inHg , 1003.4 hPa
Clouds: Partly cloudy
Visibility: 10 miles , 16 km
Cloud details: Partly cloudy 4000 ft
2015/01/25 09:54 KMKC 250954Z 29009G17KT 10SM SCT040 09/04 A2963 RMK AO2 SLP033 T00890039
 
KIXD - Olathe/Industria, Kansas, USA
Distance from station: WSW 25mi, 41km
Updated: Sun, 25-Jan-2015 3:53am CST
Partly cloudy
Partly cloudy
 Wind from W
Wind: W 14 mph , 22 km/h
Temperature: 45°F , 7°C
Wind Chill: 39°F , 4°C
Dew Point: 37°F , 3°C
Humidity: 76%
Barometer: 29.66 inHg , 1004.4 hPa
Clouds: Partly cloudy
Visibility: 10 miles , 16 km
Cloud details: Partly cloudy 5000 ft
2015/01/25 09:53 KIXD 250953Z AUTO 28012KT 10SM SCT050 07/03 A2966 RMK AO2 SLP043 T00670033
KMCI - Kansas City/Intl, Missouri, USA
Distance from station: NW 26mi, 42km
Updated: Sun, 25-Jan-2015 3:53am CST
Overcast
Overcast
 Wind from WNW
Wind: WNW 14 mph , 22 km/h, Gust: 20 mph , 31 km/h
Temperature: 45°F , 7°C
Wind Chill: 39°F , 4°C
Dew Point: 39°F , 4°C
Humidity: 81%
Barometer: 29.63 inHg , 1003.4 hPa
Clouds: Overcast
Visibility: 10 miles , 16 km
Cloud details: Few Clouds 3000 ft
Overcast 3600 ft
2015/01/25 09:53 KMCI 250953Z 30012G17KT 10SM FEW030 OVC036 07/04 A2963 RMK AO2 DZE11 SLP032 P0000 T00720039
 
KRCM - Warrensburg Skyh, Missouri, USA
Distance from station: ESE 38mi, 62km
Updated: Sun, 25-Jan-2015 3:55am CST
Overcast
Overcast
 Wind from W
Wind: W 7 mph , 11 km/h
Temperature: 45°F , 7°C
Wind Chill: 41°F , 5°C
Dew Point: 41°F , 5°C
Humidity: 87%
Barometer: 29.63 inHg , 1003.4 hPa
Clouds: Overcast
Visibility: 10 miles , 16 km
Cloud details: Partly cloudy 5000 ft
Mostly cloudy 6000 ft
Overcast 11000 ft
2015/01/25 09:55 KRCM 250955Z AUTO 26006KT 10SM SCT050 BKN060 OVC110 07/05 A2963 RMK AO2
KLWC - Lawrence, Kansas, USA
Distance from station: W 40mi, 65km
Updated: Sun, 25-Jan-2015 3:52am CST
Overcast
Overcast
 Wind from WNW
Wind: WNW 9 mph , 15 km/h
Temperature: 45°F , 7°C
Wind Chill: 40°F , 4°C
Dew Point: 37°F , 3°C
Humidity: 76%
Barometer: 29.68 inHg , 1005.1 hPa
Clouds: Overcast
Visibility: 10 miles , 16 km
Cloud details: Mostly cloudy 3300 ft
Mostly cloudy 4400 ft
Overcast 5500 ft
2015/01/25 09:52 KLWC 250952Z AUTO 30008KT 10SM BKN033 BKN044 OVC055 07/03 A2968 RMK AO2 SLP049 T00670033
 
KSZL - Whiteman Afb, Missouri, USA
Distance from station: ESE 53mi, 86km
Updated: Sun, 25-Jan-2015 3:58am CST
Mostly cloudy
Mostly cloudy
 Wind from W
Wind: W 12 mph , 19 km/h
Temperature: 46°F , 8°C
Wind Chill: 40°F , 4°C
Dew Point: 43°F , 6°C
Humidity: 87%
Barometer: 29.62 inHg , 1003 hPa
Clouds: Mostly cloudy
Visibility: 10 miles , 16 km
Cloud details: Few Clouds 4100 ft
Mostly cloudy 6000 ft
2015/01/25 09:58 KSZL 250958Z AUTO 28010KT 10SM FEW041 BKN060 08/06 A2962 RMK AO2 SLP034 T00750061 $
KSTJ - St. Joseph, Missouri, USA
Distance from station: NNW 59mi, 95km
Updated: Sun, 25-Jan-2015 3:53am CST
Mostly cloudy
Mostly cloudy
 Wind from NW
Wind: NW 17 mph , 28 km/h
Temperature: 45°F , 7°C
Wind Chill: 38°F , 3°C
Dew Point: 39°F , 4°C
Humidity: 81%
Barometer: 29.63 inHg , 1003.4 hPa
Clouds: Mostly cloudy
Visibility: 10 miles , 16 km
Cloud details: Few Clouds 3000 ft
Mostly cloudy 3600 ft
Mostly cloudy 4600 ft
2015/01/25 09:53 KSTJ 250953Z AUTO 31015KT 10SM FEW030 BKN036 BKN046 07/04 A2963 RMK AO2 SLP034 T00670039 $
 
KGLY - Clinton, Missouri, USA
Distance from station: SE 61mi, 98km
Updated: Sun, 25-Jan-2015 4:15am CST
Overcast
Overcast
 Wind from WSW
Wind: WSW 8 mph , 13 km/h
Temperature: 46°F , 8°C
Wind Chill: 42°F , 6°C
Dew Point: 45°F , 7°C
Humidity: 93%
Barometer: 29.65 inHg , 1004.1 hPa
Clouds: Overcast
Visibility: 10 miles , 16 km
Cloud details: Overcast 4400 ft
2015/01/25 10:15 KGLY 251015Z AUTO 25007KT 10SM OVC044 08/07 A2965 RMK AO2
KFOE - Topeka/Forbes, Kansas, USA
Distance from station: W 64mi, 103km
Updated: Sun, 25-Jan-2015 3:53am CST
Mostly cloudy
Mostly cloudy
 Wind from WNW
Wind: WNW 22 mph , 35 km/h, Gust: 28 mph , 44 km/h
Temperature: 48°F , 9°C
Wind Chill: 41°F , 5°C
Dew Point: 37°F , 3°C
Humidity: 66%
Barometer: 29.68 inHg , 1005.1 hPa
Clouds: Mostly cloudy
Visibility: 10 miles , 16 km
Cloud details: Partly cloudy 3700 ft
Mostly cloudy 5500 ft
2015/01/25 09:53 KFOE 250953Z AUTO 29019G24KT 10SM SCT037 BKN055 09/03 A2968 RMK AO2 SLP048 T00890028
 
KDMO - Sedalia, Missouri, USA
Distance from station: ESE 72mi, 116km
Updated: Sun, 25-Jan-2015 3:53am CST
Overcast
Overcast
 Wind from W
Wind: W 14 mph , 22 km/h, Gust: 21 mph , 33 km/h
Temperature: 46°F , 8°C
Wind Chill: 40°F , 4°C
Dew Point: 43°F , 6°C
Humidity: 87%
Barometer: 29.62 inHg , 1003 hPa
Clouds: Overcast
Visibility: 10 miles , 16 km
Cloud details: Mostly cloudy 4400 ft
Overcast 5000 ft
2015/01/25 09:53 KDMO 250953Z AUTO 26012G18KT 10SM BKN044 OVC050 08/06 A2962 RMK AO2 SLP029 T00830061
KCDJ - Chillicothe, Missouri, USA
Distance from station: NE 74mi, 120km
Updated: Sun, 25-Jan-2015 3:52am CST

 Wind from W
Wind: W 8 mph , 13 km/h
Temperature: 45°F , 7°C
Wind Chill: 41°F , 5°C
Dew Point: 41°F , 5°C
Humidity: 87%
Barometer: 29.58 inHg , 1001.7 hPa
2015/01/25 09:52 KCDJ 250952Z AUTO 28007KT 07/05 A2958 RMK AO1 SLP018 T00720050
 
KFNB - Falls City/Brenn, Nebraska, USA
Distance from station: NW 96mi, 154km
Updated: Sun, 25-Jan-2015 3:53am CST
Overcast
Overcast
 Wind from NW
Wind: NW 18 mph , 30 km/h, Gust: 29 mph , 46 km/h
Temperature: 43°F , 6°C
Wind Chill: 35°F , 2°C
Dew Point: 36°F , 2°C
Humidity: 76%
Barometer: 29.65 inHg , 1004.1 hPa
Clouds: Overcast
Visibility: 10 miles , 16 km
Cloud details: Overcast 2600 ft
2015/01/25 09:53 KFNB 250953Z AUTO 31016G25KT 10SM OVC026 06/02 A2965 RMK AO2 PK WND 31029/0927 SLP041 T00610022
KVER - Boonville, Missouri, USA
Distance from station: E 96mi, 154km
Updated: Sun, 25-Jan-2015 3:55am CST
Overcast
Overcast
 Wind from W
Wind: W 7 mph , 11 km/h
Temperature: 46°F , 8°C
Wind Chill: 42°F , 6°C
Dew Point: 45°F , 7°C
Humidity: 93%
Barometer: 29.59 inHg , 1002 hPa
Clouds: Overcast
Visibility: 10 miles , 16 km
Cloud details: Mostly cloudy 1200 ft
Mostly cloudy 1800 ft
Overcast 2500 ft
2015/01/25 09:55 KVER 250955Z AUTO 26006KT 10SM BKN012 BKN018 OVC025 08/07 A2959 RMK AO2 T00750071